createdAt,value
2023-03-29T00:00:49.647Z,101805.19
2023-03-29T00:03:17.190Z,101816.44
2023-03-29T00:05:44.770Z,101811.19
2023-03-29T00:08:14.280Z,101805.03
2023-03-29T00:10:41.832Z,101798.97
2023-03-29T00:13:08.603Z,101800.56
2023-03-29T00:15:36.235Z,101796.19
2023-03-29T00:18:02.639Z,101797.81
2023-03-29T00:20:29.142Z,101797.81
2023-03-29T00:22:55.698Z,101793.41
2023-03-29T00:25:22.201Z,101789.88
2023-03-29T00:27:48.750Z,101785.34
2023-03-29T00:30:15.946Z,101773.19
2023-03-29T00:32:42.920Z,101758.31
2023-03-29T00:35:10.019Z,101759.16
2023-03-29T00:37:37.877Z,101755.75
2023-03-29T00:40:11.685Z,101754.06
2023-03-29T00:42:38.435Z,101750.53
2023-03-29T00:45:25.130Z,101745.31
2023-03-29T00:47:59.963Z,101741.78
2023-03-29T00:50:30.806Z,101743.47
2023-03-29T00:53:01.496Z,101745.16
2023-03-29T00:55:33.362Z,101744.97
2023-03-29T00:58:00.949Z,101733.59
2023-03-29T01:00:34.994Z,101727.28
2023-03-29T01:03:07.079Z,101728.97
2023-03-29T01:05:40.634Z,101727.13
2023-03-29T01:08:17.931Z,101721.56
2023-03-29T01:11:26.639Z,101713.63
2023-03-29T01:13:56.049Z,101712.47
2023-03-29T01:16:25.758Z,101703.69
2023-03-29T01:18:52.362Z,101708.72
2023-03-29T01:21:23.463Z,101703.25
2023-03-29T01:23:58.216Z,101701.31
2023-03-29T01:26:43.674Z,101699.28
2023-03-29T01:29:15.382Z,101694.75
2023-03-29T01:31:47.054Z,101695.25
2023-03-29T01:34:52.559Z,101697.59
2023-03-29T01:37:34.195Z,101702.59
2023-03-29T01:40:01.119Z,101701.31
2023-03-29T01:42:36.373Z,101695.63
2023-03-29T01:45:20.137Z,101688.28
2023-03-29T01:48:03.472Z,101681.19
2023-03-29T01:50:38.642Z,101691.69
2023-03-29T01:53:10.672Z,101679.16
2023-03-29T01:55:45.900Z,101684.25
2023-03-29T01:58:15.005Z,101674.72
2023-03-29T02:00:43.740Z,101676.47
2023-03-29T02:03:10.574Z,101677.31
2023-03-29T02:05:39.211Z,101670.22
2023-03-29T02:08:09.150Z,101675.44
2023-03-29T02:10:36.781Z,101665.91
2023-03-29T02:13:04.234Z,101662.44
2023-03-29T02:15:30.706Z,101659.91
2023-03-29T02:17:57.227Z,101661.75
2023-03-29T02:20:31.900Z,101666.94
2023-03-29T02:23:12.400Z,101643.41
2023-03-29T02:25:38.835Z,101651.28
2023-03-29T02:28:06.731Z,101650.34
2023-03-29T02:31:05.586Z,101648.75
2023-03-29T02:33:34.985Z,101646.19
2023-03-29T02:36:38.179Z,101644.34
2023-03-29T02:39:06.038Z,101634.72
2023-03-29T02:41:32.905Z,101639.13
2023-03-29T02:44:01.194Z,101629.47
2023-03-29T02:46:28.181Z,101630.31
2023-03-29T02:48:56.910Z,101635.50
2023-03-29T02:51:33.741Z,101625.06
2023-03-29T02:54:05.918Z,101625.84
2023-03-29T02:56:45.097Z,101624.91
2023-03-29T02:59:12.398Z,101624.06
2023-03-29T03:01:42.812Z,101624.06
2023-03-29T03:04:13.147Z,101617.06
2023-03-29T03:06:39.917Z,101618.91
2023-03-29T03:09:07.485Z,101621.53
2023-03-29T03:11:34.356Z,101615.53
2023-03-29T03:14:00.900Z,101604.28
2023-03-29T03:16:27.933Z,101601.75
2023-03-29T03:18:55.581Z,101598.28
2023-03-29T03:21:23.092Z,101588.72
2023-03-29T03:23:49.695Z,101590.44
2023-03-29T03:26:17.769Z,101591.16
2023-03-29T03:28:45.730Z,101581.63
2023-03-29T03:31:15.873Z,101596.41
2023-03-29T03:33:42.476Z,101590.44
2023-03-29T03:36:10.407Z,101586.88
2023-03-29T03:38:38.247Z,101580.69
2023-03-29T03:41:06.855Z,101585.03
2023-03-29T03:43:34.138Z,101589.41
2023-03-29T03:46:00.701Z,101594.63
2023-03-29T03:48:27.322Z,101586.03
2023-03-29T03:50:56.041Z,101593.88
2023-03-29T03:53:23.551Z,101588.56
2023-03-29T03:55:50.927Z,101589.50
2023-03-29T03:58:18.363Z,101587.72
2023-03-29T04:00:48.180Z,101592.09
2023-03-29T04:03:15.666Z,101581.63
2023-03-29T04:05:44.471Z,101594.72
2023-03-29T04:08:14.894Z,101577.16
2023-03-29T04:10:41.567Z,101585.88
2023-03-29T04:13:08.290Z,101580.53
2023-03-29T04:15:41.103Z,101585.59
2023-03-29T04:18:07.798Z,101577.75
2023-03-29T04:20:34.627Z,101579.44
2023-03-29T04:23:01.613Z,101577.75
2023-03-29T04:25:28.434Z,101579.44
2023-03-29T04:27:54.870Z,101573.25
2023-03-29T04:30:21.775Z,101576.81
2023-03-29T04:32:48.719Z,101562.88
2023-03-29T04:35:15.214Z,101560.34
2023-03-29T04:37:41.782Z,101562.97
2023-03-29T04:40:09.922Z,101561.81
2023-03-29T04:42:37.586Z,101554.91
2023-03-29T04:45:06.943Z,101558.38
2023-03-29T04:47:36.212Z,101558.28
2023-03-29T04:50:03.424Z,101561.81
2023-03-29T04:52:32.963Z,101554.06
2023-03-29T04:55:03.999Z,101553.22
2023-03-29T04:57:30.759Z,101555.75
2023-03-29T04:59:57.648Z,101549.50
2023-03-29T05:02:24.118Z,101561.72
2023-03-29T05:04:50.508Z,101558.28
2023-03-29T05:07:18.146Z,101552.88
2023-03-29T05:09:44.598Z,101550.25
2023-03-29T05:12:11.061Z,101550.97
2023-03-29T05:14:37.401Z,101550.97
2023-03-29T05:17:04.986Z,101542.19
2023-03-29T05:19:31.908Z,101542.19
2023-03-29T05:21:59.087Z,101539.50
2023-03-29T05:24:25.718Z,101543.69
2023-03-29T05:26:52.274Z,101548.56
2023-03-29T05:29:19.067Z,101550.06
2023-03-29T05:31:46.821Z,101543.97
2023-03-29T05:34:13.325Z,101553.47
2023-03-29T05:36:39.749Z,101558.69
2023-03-29T05:39:06.775Z,101556.81
2023-03-29T05:41:33.626Z,101554.94
2023-03-29T05:44:00.054Z,101555.78
2023-03-29T05:46:26.972Z,101560.13
2023-03-29T05:48:53.553Z,101558.34
2023-03-29T05:51:24.467Z,101559.81
2023-03-29T05:53:51.488Z,101555.34
2023-03-29T05:56:18.897Z,101554.41
2023-03-29T05:58:50.941Z,101563.00
2023-03-29T06:01:18.203Z,101561.13
2023-03-29T06:03:46.215Z,101562.63
2023-03-29T06:06:16.092Z,101559.91
2023-03-29T06:08:43.457Z,101557.03
2023-03-29T06:11:11.495Z,101560.38
2023-03-29T06:13:38.808Z,101560.22
2023-03-29T06:16:06.376Z,101563.38
2023-03-29T06:18:33.412Z,101562.25
2023-03-29T06:21:02.000Z,101558.59
2023-03-29T06:23:29.256Z,101557.38
2023-03-29T06:25:56.464Z,101563.06
2023-03-29T06:28:23.943Z,101565.22
2023-03-29T06:30:50.570Z,101564.94
2023-03-29T06:33:17.226Z,101563.81
2023-03-29T06:35:47.499Z,101560.72
2023-03-29T06:38:15.083Z,101564.44
2023-03-29T06:40:43.194Z,101564.78
2023-03-29T06:43:10.275Z,101567.97
2023-03-29T06:45:38.566Z,101562.28
2023-03-29T06:48:06.267Z,101562.75
2023-03-29T06:50:33.020Z,101570.16
2023-03-29T06:52:59.641Z,101568.69
2023-03-29T06:55:27.098Z,101564.00
2023-03-29T06:57:54.648Z,101560.13
2023-03-29T07:00:39.364Z,101550.88
2023-03-29T07:03:09.651Z,101564.47
2023-03-29T07:05:37.157Z,101571.28
2023-03-29T07:08:06.417Z,101566.69
2023-03-29T07:10:38.304Z,101574.91
2023-03-29T07:13:11.006Z,101564.72
2023-03-29T07:15:37.593Z,101562.31
2023-03-29T07:18:04.641Z,101572.09
2023-03-29T07:20:32.046Z,101566.31
2023-03-29T07:22:58.412Z,101568.94
2023-03-29T07:25:26.140Z,101573.66
2023-03-29T07:27:52.948Z,101571.16
2023-03-29T07:30:23.235Z,101567.97
2023-03-29T07:32:51.075Z,101566.31
2023-03-29T07:35:18.421Z,101570.63
2023-03-29T07:37:46.326Z,101574.94
2023-03-29T07:40:18.694Z,101568.94
2023-03-29T07:42:46.592Z,101571.16
2023-03-29T07:45:16.348Z,101568.63
2023-03-29T07:47:47.503Z,101576.28
2023-03-29T07:50:14.554Z,101579.97
2023-03-29T07:52:41.094Z,101579.09
2023-03-29T07:55:10.277Z,101579.66
2023-03-29T07:57:36.870Z,101580.91
2023-03-29T08:00:16.972Z,101577.81
2023-03-29T08:02:45.699Z,101576.66
2023-03-29T08:05:14.132Z,101578.16
2023-03-29T08:07:42.317Z,101581.41
2023-03-29T08:10:11.542Z,101568.00
2023-03-29T08:12:38.041Z,101580.03
2023-03-29T08:15:05.490Z,101583.88
2023-03-29T08:17:33.117Z,101581.25
2023-03-29T08:19:59.587Z,101574.91
2023-03-29T08:22:26.098Z,101580.34
2023-03-29T08:24:52.870Z,101575.84
2023-03-29T08:27:19.796Z,101578.44
2023-03-29T08:29:46.609Z,101578.22
2023-03-29T08:32:12.996Z,101575.59
2023-03-29T08:34:39.378Z,101567.00
2023-03-29T08:37:05.757Z,101561.06
2023-03-29T08:39:32.488Z,101554.16
2023-03-29T08:42:08.850Z,101552.84
2023-03-29T08:44:54.517Z,101555.75
2023-03-29T08:47:36.586Z,101558.19
2023-03-29T08:50:03.207Z,101553.63
2023-03-29T08:52:42.888Z,101559.47
2023-03-29T08:55:24.460Z,101556.91
2023-03-29T08:57:51.788Z,101561.59
2023-03-29T09:00:24.389Z,101569.19
2023-03-29T09:02:53.855Z,101580.81
2023-03-29T09:05:27.336Z,101580.56
2023-03-29T09:07:54.433Z,101563.06
2023-03-29T09:10:28.043Z,101575.53
2023-03-29T09:13:30.226Z,101574.72
2023-03-29T09:16:32.999Z,101579.03
2023-03-29T09:19:06.255Z,101566.66
2023-03-29T09:21:55.896Z,101575.75
2023-03-29T09:24:54.142Z,101566.41
2023-03-29T09:27:27.417Z,101575.38
2023-03-29T09:30:07.128Z,101578.75
2023-03-29T09:32:51.313Z,101568.88
2023-03-29T09:35:33.353Z,101561.91
2023-03-29T09:38:00.647Z,101572.81
2023-03-29T09:40:37.874Z,101570.03
2023-03-29T09:43:13.646Z,101576.72
2023-03-29T09:45:41.124Z,101581.69
2023-03-29T09:48:15.428Z,101570.75
2023-03-29T09:50:47.490Z,101571.56
2023-03-29T09:53:18.672Z,101561.44
2023-03-29T09:55:49.078Z,101559.22
2023-03-29T09:58:20.378Z,101567.53
2023-03-29T10:00:48.249Z,101569.63
2023-03-29T10:03:29.597Z,101576.03
2023-03-29T10:05:59.896Z,101577.50
2023-03-29T10:08:35.875Z,101577.00
2023-03-29T10:11:09.581Z,101577.78
2023-03-29T10:13:50.897Z,101565.53
2023-03-29T10:16:41.482Z,101560.75
2023-03-29T10:19:22.328Z,101555.94
2023-03-29T10:21:50.357Z,101548.75
2023-03-29T10:24:24.588Z,101550.19
2023-03-29T10:26:56.245Z,101546.81
2023-03-29T10:29:24.584Z,101545.44
2023-03-29T10:31:51.793Z,101541.88
2023-03-29T10:34:18.868Z,101545.84
2023-03-29T10:36:55.606Z,101550.22
2023-03-29T10:39:22.979Z,101546.41
2023-03-29T10:41:52.421Z,101534.41
2023-03-29T10:44:34.220Z,101543.66
2023-03-29T10:47:16.998Z,101544.41
2023-03-29T10:49:47.801Z,101533.69
2023-03-29T10:52:16.420Z,101540.16
2023-03-29T10:54:43.684Z,101543.97
2023-03-29T10:57:15.792Z,101532.59
2023-03-29T10:59:52.965Z,101531.91
2023-03-29T11:02:30.249Z,101522.19
2023-03-29T11:05:19.233Z,101521.50
2023-03-29T11:07:51.889Z,101513.38
2023-03-29T11:10:36.531Z,101526.25
2023-03-29T11:13:40.833Z,101526.34
2023-03-29T11:16:45.223Z,101518.56
2023-03-29T11:19:49.275Z,101521.19
2023-03-29T11:22:21.770Z,101504.75
2023-03-29T11:25:11.458Z,101514.81
2023-03-29T11:27:44.909Z,101508.88
2023-03-29T11:30:25.778Z,101505.44
2023-03-29T11:33:24.127Z,101510.56
2023-03-29T11:36:01.822Z,101520.38
2023-03-29T11:38:59.372Z,101507.47
2023-03-29T11:41:30.412Z,101515.56
2023-03-29T11:44:10.298Z,101512.66
2023-03-29T11:46:44.132Z,101505.38
2023-03-29T11:49:32.194Z,101511.38
2023-03-29T11:52:20.007Z,101506.69
2023-03-29T11:54:55.547Z,101513.88
2023-03-29T11:57:37.009Z,101515.03
2023-03-29T12:00:12.845Z,101515.00
2023-03-29T12:02:44.398Z,101521.31
2023-03-29T12:05:24.403Z,101523.09
2023-03-29T12:07:56.080Z,101531.22
2023-03-29T12:10:29.019Z,101524.16
2023-03-29T12:13:00.939Z,101516.88
2023-03-29T12:15:33.540Z,101512.13
2023-03-29T12:18:20.002Z,101510.66
2023-03-29T12:20:52.176Z,101504.59
2023-03-29T12:23:19.169Z,101493.53
2023-03-29T12:26:04.092Z,101502.16
2023-03-29T12:28:55.451Z,101498.81
2023-03-29T12:31:42.372Z,101493.53
2023-03-29T12:34:36.251Z,101505.69
2023-03-29T12:37:14.652Z,101494.63
2023-03-29T12:39:41.304Z,101504.34
2023-03-29T12:42:16.939Z,101500.72
2023-03-29T12:44:51.972Z,101497.84
2023-03-29T12:47:25.234Z,101502.09
2023-03-29T12:49:58.099Z,101507.03
2023-03-29T12:52:30.418Z,101495.16
2023-03-29T12:55:25.233Z,101480.88
2023-03-29T12:58:05.060Z,101477.63
2023-03-29T13:00:40.220Z,101462.31
2023-03-29T13:03:27.585Z,101450.72
2023-03-29T13:06:03.456Z,101437.31
2023-03-29T13:08:39.939Z,101440.06
2023-03-29T13:11:31.445Z,101428.66
2023-03-29T13:14:01.408Z,101434.56
2023-03-29T13:16:34.879Z,101430.16
2023-03-29T13:19:09.656Z,101422.00
2023-03-29T13:22:10.409Z,101419.41
2023-03-29T13:24:55.619Z,101419.19
2023-03-29T13:27:31.677Z,101414.03
2023-03-29T13:30:11.546Z,101407.47
2023-03-29T13:32:47.205Z,101401.91
2023-03-29T13:35:41.314Z,101410.28
2023-03-29T13:38:18.769Z,101405.78
2023-03-29T13:40:54.359Z,101408.81
2023-03-29T13:43:51.638Z,101418.59
2023-03-29T13:46:23.239Z,101408.03
2023-03-29T13:48:54.555Z,101407.38
2023-03-29T13:51:27.958Z,101411.81
2023-03-29T13:54:01.453Z,101410.59
2023-03-29T13:56:43.177Z,101410.63
2023-03-29T13:59:11.819Z,101391.38
2023-03-29T14:01:54.520Z,101380.63
2023-03-29T14:04:25.226Z,101374.91
2023-03-29T14:06:54.383Z,101370.16
2023-03-29T14:09:30.049Z,101362.09
2023-03-29T14:11:58.779Z,101357.03
2023-03-29T14:14:27.879Z,101361.22
2023-03-29T14:16:56.259Z,101356.03
2023-03-29T14:19:34.409Z,101357.06
2023-03-29T14:22:02.306Z,101355.91
2023-03-29T14:24:37.659Z,101352.44
2023-03-29T14:27:06.894Z,101349.50
2023-03-29T14:29:34.201Z,101352.31
2023-03-29T14:32:11.847Z,101353.56
2023-03-29T14:34:39.575Z,101341.25
2023-03-29T14:37:08.911Z,101348.34
2023-03-29T14:39:35.973Z,101336.31
2023-03-29T14:42:02.656Z,101331.59
2023-03-29T14:44:33.015Z,101316.38
2023-03-29T14:47:01.427Z,101321.66
2023-03-29T14:49:28.026Z,101312.13
2023-03-29T14:51:55.635Z,101315.50
2023-03-29T14:54:32.657Z,101313.22
2023-03-29T14:57:03.278Z,101307.31
2023-03-29T14:59:41.656Z,101294.00
2023-03-29T15:02:23.305Z,101292.94
2023-03-29T15:05:25.434Z,101284.59
2023-03-29T15:07:55.809Z,101282.81
2023-03-29T15:10:22.439Z,101286.63
2023-03-29T15:12:50.068Z,101282.06
2023-03-29T15:15:16.971Z,101270.03
2023-03-29T15:17:51.827Z,101270.03
2023-03-29T15:20:25.589Z,101276.56
2023-03-29T15:22:59.286Z,101264.47
2023-03-29T15:25:47.562Z,101263.03
2023-03-29T15:28:27.625Z,101258.34
2023-03-29T15:31:07.254Z,101253.63
2023-03-29T15:33:38.228Z,101255.28
2023-03-29T15:36:06.865Z,101247.72
2023-03-29T15:38:43.120Z,101246.88
2023-03-29T15:41:10.831Z,101240.34
2023-03-29T15:43:37.480Z,101242.25
2023-03-29T15:46:04.338Z,101241.19
2023-03-29T15:48:33.820Z,101230.19
2023-03-29T15:51:05.516Z,101231.44
2023-03-29T15:53:33.196Z,101228.34
2023-03-29T15:56:02.148Z,101226.22
2023-03-29T15:58:33.543Z,101216.75
2023-03-29T16:01:11.163Z,101217.19
2023-03-29T16:03:38.482Z,101208.41
2023-03-29T16:06:05.425Z,101204.31
2023-03-29T16:08:32.058Z,101193.41
2023-03-29T16:10:58.364Z,101197.41
2023-03-29T16:13:24.717Z,101193.09
2023-03-29T16:15:51.045Z,101190.06
2023-03-29T16:18:17.399Z,101176.13
2023-03-29T16:20:43.815Z,101167.47
2023-03-29T16:23:11.438Z,101167.75
2023-03-29T16:25:39.769Z,101163.75
2023-03-29T16:28:08.909Z,101159.72
2023-03-29T16:30:36.675Z,101149.13
2023-03-29T16:33:06.308Z,101145.47
2023-03-29T16:35:35.433Z,101148.97
2023-03-29T16:38:01.884Z,101139.66
2023-03-29T16:40:28.347Z,101139.09
2023-03-29T16:42:54.808Z,101124.78
2023-03-29T16:45:21.314Z,101117.41
2023-03-29T16:47:47.904Z,101110.06
2023-03-29T16:50:17.894Z,101113.16
2023-03-29T16:52:46.101Z,101112.78
2023-03-29T16:55:13.592Z,101130.13
2023-03-29T16:57:40.154Z,101127.06
2023-03-29T17:00:12.241Z,101120.28
2023-03-29T17:02:38.699Z,101112.06
2023-03-29T17:05:06.061Z,101111.34
2023-03-29T17:07:33.528Z,101113.16
2023-03-29T17:10:00.158Z,101116.94
2023-03-29T17:12:26.821Z,101116.28
2023-03-29T17:14:53.148Z,101118.22
2023-03-29T17:17:19.640Z,101116.56
2023-03-29T17:19:46.173Z,101111.41
2023-03-29T17:22:12.584Z,101108.75
2023-03-29T17:24:38.970Z,101101.91
2023-03-29T17:27:05.293Z,101097.22
2023-03-29T17:29:31.807Z,101091.06
2023-03-29T17:31:58.393Z,101091.22
2023-03-29T17:34:27.026Z,101091.53
2023-03-29T17:36:54.015Z,101088.16
2023-03-29T17:39:20.445Z,101074.25
2023-03-29T17:41:47.320Z,101070.91
2023-03-29T17:44:13.896Z,101077.31
2023-03-29T17:46:40.257Z,101064.22
2023-03-29T17:49:06.625Z,101066.47
2023-03-29T17:51:32.974Z,101069.03
2023-03-29T17:53:59.333Z,101066.13
2023-03-29T17:56:26.536Z,101063.78
2023-03-29T17:58:53.423Z,101056.28
2023-03-29T18:01:20.348Z,101055.19
2023-03-29T18:03:48.289Z,101062.19
2023-03-29T18:06:17.995Z,101059.72
2023-03-29T18:08:44.740Z,101062.78
2023-03-29T18:11:22.296Z,101052.06
2023-03-29T18:13:49.777Z,101060.31
2023-03-29T18:16:16.374Z,101064.78
2023-03-29T18:18:43.655Z,101055.75
2023-03-29T18:21:10.816Z,101046.97
2023-03-29T18:23:39.830Z,101055.06
2023-03-29T18:26:07.334Z,101057.53
2023-03-29T18:28:34.898Z,101048.09
2023-03-29T18:31:01.278Z,101045.31
2023-03-29T18:33:30.123Z,101042.38
2023-03-29T18:35:56.510Z,101038.34
2023-03-29T18:38:22.942Z,101032.38
2023-03-29T18:40:50.416Z,101038.75
2023-03-29T18:43:17.050Z,101026.94
2023-03-29T18:45:44.398Z,101033.72
2023-03-29T18:48:11.079Z,101029.41
2023-03-29T18:50:38.672Z,101027.50
2023-03-29T18:53:05.271Z,101039.72
2023-03-29T18:55:31.641Z,101041.09
2023-03-29T18:57:58.004Z,101036.00
2023-03-29T19:00:24.471Z,101030.25
2023-03-29T19:02:51.054Z,101019.94
2023-03-29T19:05:17.624Z,101024.13
2023-03-29T19:07:44.297Z,101032.47
2023-03-29T19:10:12.042Z,101033.16
2023-03-29T19:12:38.568Z,101026.78
2023-03-29T19:15:05.641Z,101028.03
2023-03-29T19:17:32.178Z,101014.56
2023-03-29T19:19:58.800Z,101021.06
2023-03-29T19:22:25.240Z,101014.69
2023-03-29T19:24:51.577Z,101021.50
2023-03-29T19:27:18.448Z,101015.34
2023-03-29T19:29:44.828Z,101014.13
2023-03-29T19:32:11.225Z,101009.94
2023-03-29T19:34:37.572Z,101006.91
2023-03-29T19:37:03.978Z,101000.22
2023-03-29T19:39:30.476Z,100991.56
2023-03-29T19:41:56.914Z,100987.41
2023-03-29T19:44:23.566Z,100974.88
2023-03-29T19:46:51.200Z,100966.69
2023-03-29T19:49:17.642Z,100960.69
2023-03-29T19:51:44.185Z,100961.09
2023-03-29T19:54:13.732Z,100957.22
2023-03-29T19:56:42.825Z,100958.19
2023-03-29T19:59:11.113Z,100948.19
2023-03-29T20:01:39.034Z,100949.16
2023-03-29T20:04:05.571Z,100950.13
2023-03-29T20:06:31.985Z,100938.72
2023-03-29T20:08:58.811Z,100933.44
2023-03-29T20:11:25.568Z,100931.56
2023-03-29T20:13:52.270Z,100926.75
2023-03-29T20:16:19.200Z,100919.91
2023-03-29T20:18:46.481Z,100920.47
2023-03-29T20:21:16.207Z,100916.28
2023-03-29T20:23:42.710Z,100910.59
2023-03-29T20:26:09.104Z,100911.19
2023-03-29T20:28:37.529Z,100910.03
2023-03-29T20:31:06.198Z,100904.34
2023-03-29T20:33:33.488Z,100894.75
2023-03-29T20:36:00.000Z,100882.63
2023-03-29T20:38:26.600Z,100867.75
2023-03-29T20:40:53.538Z,100866.34
2023-03-29T20:43:20.179Z,100857.53
2023-03-29T20:45:53.440Z,100846.69
2023-03-29T20:48:22.820Z,100842.94
2023-03-29T20:50:49.454Z,100838.41
2023-03-29T20:53:16.361Z,100835.59
2023-03-29T20:55:42.778Z,100837.53
2023-03-29T20:58:09.421Z,100829.09
2023-03-29T21:00:37.614Z,100810.44
2023-03-29T21:03:04.206Z,100817.94
2023-03-29T21:05:32.912Z,100811.56
2023-03-29T21:07:59.966Z,100823.06
2023-03-29T21:10:27.353Z,100805.69
2023-03-29T21:12:54.281Z,100802.06
2023-03-29T21:15:20.959Z,100803.72
2023-03-29T21:17:47.552Z,100802.06
2023-03-29T21:20:15.189Z,100803.72
2023-03-29T21:22:45.540Z,100801.91
2023-03-29T21:25:15.502Z,100803.28
2023-03-29T21:27:42.099Z,100799.03
2023-03-29T21:30:09.853Z,100795.09
2023-03-29T21:32:36.611Z,100796.38
2023-03-29T21:35:03.184Z,100782.91
2023-03-29T21:37:29.559Z,100783.56
2023-03-29T21:39:55.909Z,100780.56
2023-03-29T21:42:22.257Z,100773.06
2023-03-29T21:44:48.592Z,100772.25
2023-03-29T21:47:14.961Z,100772.84
2023-03-29T21:49:41.646Z,100776.78
2023-03-29T21:52:08.023Z,100762.16
2023-03-29T21:54:34.410Z,100761.19
2023-03-29T21:57:01.198Z,100749.53
2023-03-29T21:59:27.929Z,100753.25
2023-03-29T22:01:54.344Z,100744.31
2023-03-29T22:04:35.331Z,100748.78
2023-03-29T22:07:03.060Z,100753.00
2023-03-29T22:09:29.605Z,100745.75
2023-03-29T22:11:56.770Z,100738.63
2023-03-29T22:14:23.183Z,100731.84
2023-03-29T22:16:49.567Z,100723.91
2023-03-29T22:19:16.024Z,100734.84
2023-03-29T22:21:42.495Z,100731.25
2023-03-29T22:24:08.839Z,100737.06
2023-03-29T22:26:35.466Z,100742.44
2023-03-29T22:29:02.768Z,100749.78
2023-03-29T22:31:31.244Z,100738.94
2023-03-29T22:33:58.482Z,100738.28
2023-03-29T22:36:27.600Z,100740.78
2023-03-29T22:38:54.936Z,100733.28
2023-03-29T22:41:23.780Z,100732.00
2023-03-29T22:43:52.483Z,100735.25
2023-03-29T22:46:19.898Z,100732.28
2023-03-29T22:48:46.718Z,100724.66
2023-03-29T22:51:13.219Z,100725.25
2023-03-29T22:53:39.580Z,100723.59
2023-03-29T22:56:07.447Z,100711.88
2023-03-29T22:58:33.901Z,100707.97
2023-03-29T23:01:00.423Z,100710.38
2023-03-29T23:03:26.924Z,100701.19
2023-03-29T23:05:55.668Z,100702.28
2023-03-29T23:08:26.120Z,100701.84
2023-03-29T23:10:52.753Z,100702.53
2023-03-29T23:13:24.006Z,100704.81
2023-03-29T23:15:50.792Z,100703.44
2023-03-29T23:18:20.902Z,100694.00
2023-03-29T23:20:48.980Z,100690.13
2023-03-29T23:23:17.017Z,100681.75
2023-03-29T23:25:45.571Z,100690.97
2023-03-29T23:28:12.654Z,100685.66
2023-03-29T23:30:39.431Z,100686.88
2023-03-29T23:33:06.833Z,100687.72
2023-03-29T23:35:33.441Z,100684.25
2023-03-29T23:37:59.801Z,100682.47
2023-03-29T23:40:27.665Z,100676.91
2023-03-29T23:42:59.367Z,100669.41
2023-03-29T23:45:29.284Z,100666.09
2023-03-29T23:47:56.990Z,100654.91
2023-03-29T23:50:23.703Z,100657.84
2023-03-29T23:52:51.492Z,100651.88
2023-03-29T23:55:18.435Z,100660.19
2023-03-29T23:57:44.862Z,100663.28
